sensor_id;sensor_type;location;lat;lon;timestamp;temperature;humidity
52321;DHT22;38261;54.090;13.382;2022-08-01T00:00:07;19.50;99.90
52321;DHT22;38261;54.090;13.382;2022-08-01T00:01:31;19.50;99.90
52321;DHT22;38261;54.090;13.382;2022-08-01T00:02:53;19.40;99.90
52321;DHT22;38261;54.090;13.382;2022-08-01T00:04:15;19.40;99.90
52321;DHT22;38261;54.090;13.382;2022-08-01T00:05:37;19.40;99.90
52321;DHT22;38261;54.090;13.382;2022-08-01T00:06:59;19.40;99.90
52321;DHT22;38261;54.090;13.382;2022-08-01T00:08:22;19.40;99.90
52321;DHT22;38261;54.090;13.382;2022-08-01T00:09:44;19.40;99.90
52321;DHT22;38261;54.090;13.382;2022-08-01T00:11:06;19.40;99.90
52321;DHT22;38261;54.090;13.382;2022-08-01T00:12:31;19.40;99.90
52321;DHT22;38261;54.090;13.382;2022-08-01T00:13:53;19.40;99.90
52321;DHT22;38261;54.090;13.382;2022-08-01T00:15:16;19.40;99.90
52321;DHT22;38261;54.090;13.382;2022-08-01T00:16:38;19.40;99.90
52321;DHT22;38261;54.090;13.382;2022-08-01T00:18:01;19.40;99.90
52321;DHT22;38261;54.090;13.382;2022-08-01T00:19:23;19.40;99.90
52321;DHT22;38261;54.090;13.382;2022-08-01T00:20:45;19.40;99.90
52321;DHT22;38261;54.090;13.382;2022-08-01T00:22:07;19.50;99.90
52321;DHT22;38261;54.090;13.382;2022-08-01T00:23:30;19.40;99.90
52321;DHT22;38261;54.090;13.382;2022-08-01T00:24:52;19.50;99.90
52321;DHT22;38261;54.090;13.382;2022-08-01T00:26:15;19.50;99.90
52321;DHT22;38261;54.090;13.382;2022-08-01T00:27:37;19.50;99.90
52321;DHT22;38261;54.090;13.382;2022-08-01T00:28:59;19.50;99.90
52321;DHT22;38261;54.090;13.382;2022-08-01T00:30:21;19.50;99.90
52321;DHT22;38261;54.090;13.382;2022-08-01T00:31:43;19.50;99.90
52321;DHT22;38261;54.090;13.382;2022-08-01T00:33:05;19.50;99.90
52321;DHT22;38261;54.090;13.382;2022-08-01T00:34:27;19.50;99.90
52321;DHT22;38261;54.090;13.382;2022-08-01T00:35:50;19.50;99.90
52321;DHT22;38261;54.090;13.382;2022-08-01T00:37:12;19.50;99.90
52321;DHT22;38261;54.090;13.382;2022-08-01T00:38:37;19.50;99.90
52321;DHT22;38261;54.090;13.382;2022-08-01T00:39:59;19.50;99.90
52321;DHT22;38261;54.090;13.382;2022-08-01T00:41:21;19.50;99.90
52321;DHT22;38261;54.090;13.382;2022-08-01T00:42:43;19.50;99.90
52321;DHT22;38261;54.090;13.382;2022-08-01T00:44:05;19.50;99.90
52321;DHT22;38261;54.090;13.382;2022-08-01T00:45:27;19.50;99.90
52321;DHT22;38261;54.090;13.382;2022-08-01T00:46:50;19.50;99.90
52321;DHT22;38261;54.090;13.382;2022-08-01T00:48:12;19.60;99.90
52321;DHT22;38261;54.090;13.382;2022-08-01T00:49:34;19.50;99.90
52321;DHT22;38261;54.090;13.382;2022-08-01T00:50:57;19.60;99.90
52321;DHT22;38261;54.090;13.382;2022-08-01T00:52:19;19.50;99.90
52321;DHT22;38261;54.090;13.382;2022-08-01T00:53:42;19.60;99.90
52321;DHT22;38261;54.090;13.382;2022-08-01T00:55:13;19.50;99.90
52321;DHT22;38261;54.090;13.382;2022-08-01T00:56:36;19.50;99.90
52321;DHT22;38261;54.090;13.382;2022-08-01T00:57:58;19.50;99.90
52321;DHT22;38261;54.090;13.382;2022-08-01T00:59:27;19.50;99.90
52321;DHT22;38261;54.090;13.382;2022-08-01T01:00:49;19.60;99.90
52321;DHT22;38261;54.090;13.382;2022-08-01T01:02:15;19.50;99.90
52321;DHT22;38261;54.090;13.382;2022-08-01T01:03:38;19.50;99.90
52321;DHT22;38261;54.090;13.382;2022-08-01T01:05:19;19.50;99.90
52321;DHT22;38261;54.090;13.382;2022-08-01T01:08:19;19.50;99.90
52321;DHT22;38261;54.090;13.382;2022-08-01T01:10:09;19.50;99.90
52321;DHT22;38261;54.090;13.382;2022-08-01T01:12:02;19.60;99.90
52321;DHT22;38261;54.090;13.382;2022-08-01T01:13:42;19.60;99.90
52321;DHT22;38261;54.090;13.382;2022-08-01T01:15:21;19.60;99.90
52321;DHT22;38261;54.090;13.382;2022-08-01T01:16:45;19.60;99.90
52321;DHT22;38261;54.090;13.382;2022-08-01T01:18:40;19.60;99.90
52321;DHT22;38261;54.090;13.382;2022-08-01T01:20:06;19.60;99.90
52321;DHT22;38261;54.090;13.382;2022-08-01T01:25:09;19.60;99.90
52321;DHT22;38261;54.090;13.382;2022-08-01T01:28:40;19.50;99.90
52321;DHT22;38261;54.090;13.382;2022-08-01T01:30:05;19.50;99.90
52321;DHT22;38261;54.090;13.382;2022-08-01T01:31:29;19.50;99.90
52321;DHT22;38261;54.090;13.382;2022-08-01T01:32:53;19.60;99.90
52321;DHT22;38261;54.090;13.382;2022-08-01T01:34:18;19.60;99.90
52321;DHT22;38261;54.090;13.382;2022-08-01T01:35:46;19.60;99.90
52321;DHT22;38261;54.090;13.382;2022-08-01T01:37:12;19.60;99.90
52321;DHT22;38261;54.090;13.382;2022-08-01T01:38:45;19.50;99.90
52321;DHT22;38261;54.090;13.382;2022-08-01T01:40:09;19.50;99.90
52321;DHT22;38261;54.090;13.382;2022-08-01T01:41:33;19.50;99.90
52321;DHT22;38261;54.090;13.382;2022-08-01T01:42:56;19.50;99.90
52321;DHT22;38261;54.090;13.382;2022-08-01T01:44:19;19.40;99.90
52321;DHT22;38261;54.090;13.382;2022-08-01T01:45:44;19.40;99.90
52321;DHT22;38261;54.090;13.382;2022-08-01T01:47:07;19.40;99.90
52321;DHT22;38261;54.090;13.382;2022-08-01T01:48:31;19.40;99.90
52321;DHT22;38261;54.090;13.382;2022-08-01T01:49:55;19.30;99.90
52321;DHT22;38261;54.090;13.382;2022-08-01T01:51:21;19.30;99.90
52321;DHT22;38261;54.090;13.382;2022-08-01T01:52:44;19.30;99.90
52321;DHT22;38261;54.090;13.382;2022-08-01T01:54:08;19.20;99.90
52321;DHT22;38261;54.090;13.382;2022-08-01T01:55:31;19.20;99.90
52321;DHT22;38261;54.090;13.382;2022-08-01T01:57:12;19.20;99.90
52321;DHT22;38261;54.090;13.382;2022-08-01T01:58:35;19.20;99.90
52321;DHT22;38261;54.090;13.382;2022-08-01T02:00:00;19.20;99.90
52321;DHT22;38261;54.090;13.382;2022-08-01T02:01:25;19.20;99.90
52321;DHT22;38261;54.090;13.382;2022-08-01T02:03:11;19.20;99.90
52321;DHT22;38261;54.090;13.382;2022-08-01T02:04:37;19.20;99.90
52321;DHT22;38261;54.090;13.382;2022-08-01T02:06:01;19.10;99.90
52321;DHT22;38261;54.090;13.382;2022-08-01T02:07:25;19.10;99.90
52321;DHT22;38261;54.090;13.382;2022-08-01T02:08:48;19.10;99.90
52321;DHT22;38261;54.090;13.382;2022-08-01T02:10:11;19.00;99.90
52321;DHT22;38261;54.090;13.382;2022-08-01T02:11:36;19.00;99.90
52321;DHT22;38261;54.090;13.382;2022-08-01T02:13:19;19.00;99.90
52321;DHT22;38261;54.090;13.382;2022-08-01T02:14:43;19.00;99.90
52321;DHT22;38261;54.090;13.382;2022-08-01T02:16:07;19.00;99.90
52321;DHT22;38261;54.090;13.382;2022-08-01T02:17:37;19.00;99.90
52321;DHT22;38261;54.090;13.382;2022-08-01T02:19:02;19.00;99.90
52321;DHT22;38261;54.090;13.382;2022-08-01T02:20:26;19.00;99.90
52321;DHT22;38261;54.090;13.382;2022-08-01T02:22:06;19.00;99.90
52321;DHT22;38261;54.090;13.382;2022-08-01T02:23:32;18.90;99.90
52321;DHT22;38261;54.090;13.382;2022-08-01T02:25:48;18.90;99.90
52321;DHT22;38261;54.090;13.382;2022-08-01T02:27:33;18.90;99.90
52321;DHT22;38261;54.090;13.382;2022-08-01T02:29:00;18.90;99.90
52321;DHT22;38261;54.090;13.382;2022-08-01T02:30:25;18.90;99.90
52321;DHT22;38261;54.090;13.382;2022-08-01T02:31:54;18.90;99.90
52321;DHT22;38261;54.090;13.382;2022-08-01T02:33:23;18.90;99.90
52321;DHT22;38261;54.090;13.382;2022-08-01T02:34:49;18.90;99.90
52321;DHT22;38261;54.090;13.382;2022-08-01T02:36:13;18.90;99.90
52321;DHT22;38261;54.090;13.382;2022-08-01T02:37:55;18.90;99.90
52321;DHT22;38261;54.090;13.382;2022-08-01T02:39:19;18.90;99.90
52321;DHT22;38261;54.090;13.382;2022-08-01T02:40:46;18.90;99.90
52321;DHT22;38261;54.090;13.382;2022-08-01T02:42:10;18.90;99.90
52321;DHT22;38261;54.090;13.382;2022-08-01T02:43:34;18.90;99.90
52321;DHT22;38261;54.090;13.382;2022-08-01T02:44:58;18.90;99.90
52321;DHT22;38261;54.090;13.382;2022-08-01T02:46:24;18.80;99.90
52321;DHT22;38261;54.090;13.382;2022-08-01T02:47:48;18.80;99.90
52321;DHT22;38261;54.090;13.382;2022-08-01T02:49:12;18.80;99.90
52321;DHT22;38261;54.090;13.382;2022-08-01T02:50:36;18.80;99.90
52321;DHT22;38261;54.090;13.382;2022-08-01T02:52:03;18.80;99.90
52321;DHT22;38261;54.090;13.382;2022-08-01T02:53:31;18.80;99.90
52321;DHT22;38261;54.090;13.382;2022-08-01T02:55:06;18.80;99.90
52321;DHT22;38261;54.090;13.382;2022-08-01T02:56:30;18.80;99.90
52321;DHT22;38261;54.090;13.382;2022-08-01T02:58:01;18.80;99.90
52321;DHT22;38261;54.090;13.382;2022-08-01T02:59:24;18.90;99.90
52321;DHT22;38261;54.090;13.382;2022-08-01T03:00:48;18.80;99.90
52321;DHT22;38261;54.090;13.382;2022-08-01T03:02:10;18.90;99.90
52321;DHT22;38261;54.090;13.382;2022-08-01T03:03:34;18.80;99.90
52321;DHT22;38261;54.090;13.382;2022-08-01T03:04:57;18.80;99.90
52321;DHT22;38261;54.090;13.382;2022-08-01T03:06:20;18.80;99.90
52321;DHT22;38261;54.090;13.382;2022-08-01T03:07:43;18.70;99.90
52321;DHT22;38261;54.090;13.382;2022-08-01T03:09:09;18.70;99.90
52321;DHT22;38261;54.090;13.382;2022-08-01T03:10:32;18.70;99.90
52321;DHT22;38261;54.090;13.382;2022-08-01T03:12:00;18.70;99.90
52321;DHT22;38261;54.090;13.382;2022-08-01T03:13:24;18.60;99.90
52321;DHT22;38261;54.090;13.382;2022-08-01T03:14:48;18.60;99.90
52321;DHT22;38261;54.090;13.382;2022-08-01T03:16:13;18.60;99.90
52321;DHT22;38261;54.090;13.382;2022-08-01T03:17:37;18.50;99.90
52321;DHT22;38261;54.090;13.382;2022-08-01T03:19:02;18.60;99.90
52321;DHT22;38261;54.090;13.382;2022-08-01T03:20:25;18.60;99.90
52321;DHT22;38261;54.090;13.382;2022-08-01T03:21:49;18.60;99.90
52321;DHT22;38261;54.090;13.382;2022-08-01T03:23:13;18.50;99.90
52321;DHT22;38261;54.090;13.382;2022-08-01T03:24:39;18.60;99.90
52321;DHT22;38261;54.090;13.382;2022-08-01T03:26:02;18.60;99.90
52321;DHT22;38261;54.090;13.382;2022-08-01T03:27:25;18.50;99.90
52321;DHT22;38261;54.090;13.382;2022-08-01T03:28:48;18.50;99.90
52321;DHT22;38261;54.090;13.382;2022-08-01T03:30:12;18.50;99.90
52321;DHT22;38261;54.090;13.382;2022-08-01T03:31:36;18.50;99.90
52321;DHT22;38261;54.090;13.382;2022-08-01T03:32:59;18.40;99.90
52321;DHT22;38261;54.090;13.382;2022-08-01T03:34:21;18.40;99.90
52321;DHT22;38261;54.090;13.382;2022-08-01T03:35:52;18.40;99.90
52321;DHT22;38261;54.090;13.382;2022-08-01T03:37:59;18.40;99.90
52321;DHT22;38261;54.090;13.382;2022-08-01T03:39:43;18.40;99.90
52321;DHT22;38261;54.090;13.382;2022-08-01T03:41:13;18.40;99.90
52321;DHT22;38261;54.090;13.382;2022-08-01T03:42:47;18.50;99.90
52321;DHT22;38261;54.090;13.382;2022-08-01T03:44:13;18.50;99.90
52321;DHT22;38261;54.090;13.382;2022-08-01T03:45:41;18.50;99.90
52321;DHT22;38261;54.090;13.382;2022-08-01T03:47:09;18.50;99.90
52321;DHT22;38261;54.090;13.382;2022-08-01T03:48:32;18.50;99.90
52321;DHT22;38261;54.090;13.382;2022-08-01T03:49:59;18.50;99.90
52321;DHT22;38261;54.090;13.382;2022-08-01T03:51:22;18.50;99.90
52321;DHT22;38261;54.090;13.382;2022-08-01T03:52:46;18.50;99.90
52321;DHT22;38261;54.090;13.382;2022-08-01T03:54:10;18.50;99.90
52321;DHT22;38261;54.090;13.382;2022-08-01T03:55:33;18.50;99.90
52321;DHT22;38261;54.090;13.382;2022-08-01T03:56:57;18.50;99.90
52321;DHT22;38261;54.090;13.382;2022-08-01T03:58:20;18.50;99.90
52321;DHT22;38261;54.090;13.382;2022-08-01T03:59:43;18.50;99.90
52321;DHT22;38261;54.090;13.382;2022-08-01T04:01:06;18.50;99.90
52321;DHT22;38261;54.090;13.382;2022-08-01T04:02:37;18.50;99.90
52321;DHT22;38261;54.090;13.382;2022-08-01T04:04:00;18.50;99.90
52321;DHT22;38261;54.090;13.382;2022-08-01T04:05:23;18.50;99.90
52321;DHT22;38261;54.090;13.382;2022-08-01T04:06:46;18.50;99.90
52321;DHT22;38261;54.090;13.382;2022-08-01T04:08:09;18.60;99.90
52321;DHT22;38261;54.090;13.382;2022-08-01T04:09:32;18.60;99.90
52321;DHT22;38261;54.090;13.382;2022-08-01T04:10:54;18.60;99.90
52321;DHT22;38261;54.090;13.382;2022-08-01T04:12:17;18.60;99.90
52321;DHT22;38261;54.090;13.382;2022-08-01T04:13:39;18.60;99.90
52321;DHT22;38261;54.090;13.382;2022-08-01T04:15:05;18.70;99.90
52321;DHT22;38261;54.090;13.382;2022-08-01T04:16:28;18.70;99.90
52321;DHT22;38261;54.090;13.382;2022-08-01T04:17:50;18.70;99.90
52321;DHT22;38261;54.090;13.382;2022-08-01T04:19:12;18.70;99.90
52321;DHT22;38261;54.090;13.382;2022-08-01T04:20:34;18.70;99.90
52321;DHT22;38261;54.090;13.382;2022-08-01T04:21:57;18.70;99.90
52321;DHT22;38261;54.090;13.382;2022-08-01T04:23:23;18.70;99.90
52321;DHT22;38261;54.090;13.382;2022-08-01T04:24:48;18.70;99.90
52321;DHT22;38261;54.090;13.382;2022-08-01T04:26:18;18.70;99.90
52321;DHT22;38261;54.090;13.382;2022-08-01T04:27:45;18.70;99.90
52321;DHT22;38261;54.090;13.382;2022-08-01T04:29:15;18.70;99.90
52321;DHT22;38261;54.090;13.382;2022-08-01T04:30:39;18.70;99.90
52321;DHT22;38261;54.090;13.382;2022-08-01T04:32:02;18.70;99.90
52321;DHT22;38261;54.090;13.382;2022-08-01T04:33:26;18.70;99.90
52321;DHT22;38261;54.090;13.382;2022-08-01T04:34:50;18.80;99.90
52321;DHT22;38261;54.090;13.382;2022-08-01T04:36:14;18.80;99.90
52321;DHT22;38261;54.090;13.382;2022-08-01T04:37:37;18.90;99.90
52321;DHT22;38261;54.090;13.382;2022-08-01T04:39:02;18.90;99.90
52321;DHT22;38261;54.090;13.382;2022-08-01T04:40:26;18.90;99.90
52321;DHT22;38261;54.090;13.382;2022-08-01T04:41:48;19.00;99.90
52321;DHT22;38261;54.090;13.382;2022-08-01T04:43:12;19.00;99.90
52321;DHT22;38261;54.090;13.382;2022-08-01T04:44:36;19.10;99.90
52321;DHT22;38261;54.090;13.382;2022-08-01T04:45:59;19.10;99.90
52321;DHT22;38261;54.090;13.382;2022-08-01T04:47:25;19.10;99.90
52321;DHT22;38261;54.090;13.382;2022-08-01T04:48:48;19.20;99.90
52321;DHT22;38261;54.090;13.382;2022-08-01T04:50:11;19.20;99.90
52321;DHT22;38261;54.090;13.382;2022-08-01T04:51:34;19.20;99.90
52321;DHT22;38261;54.090;13.382;2022-08-01T04:52:56;19.20;99.90
52321;DHT22;38261;54.090;13.382;2022-08-01T04:54:18;19.20;99.90
52321;DHT22;38261;54.090;13.382;2022-08-01T04:55:40;19.30;99.90
52321;DHT22;38261;54.090;13.382;2022-08-01T04:57:04;19.30;99.90
52321;DHT22;38261;54.090;13.382;2022-08-01T04:58:26;19.40;99.90
52321;DHT22;38261;54.090;13.382;2022-08-01T04:59:49;19.50;99.90
52321;DHT22;38261;54.090;13.382;2022-08-01T05:01:17;19.60;99.90
52321;DHT22;38261;54.090;13.382;2022-08-01T05:02:40;19.70;99.90
52321;DHT22;38261;54.090;13.382;2022-08-01T05:04:02;19.70;99.90
52321;DHT22;38261;54.090;13.382;2022-08-01T05:05:24;19.80;99.90
52321;DHT22;38261;54.090;13.382;2022-08-01T05:06:48;19.80;99.90
52321;DHT22;38261;54.090;13.382;2022-08-01T05:08:10;19.90;99.90
52321;DHT22;38261;54.090;13.382;2022-08-01T05:09:33;19.80;99.90
52321;DHT22;38261;54.090;13.382;2022-08-01T05:10:55;19.80;99.90
52321;DHT22;38261;54.090;13.382;2022-08-01T05:12:17;19.70;99.90
52321;DHT22;38261;54.090;13.382;2022-08-01T05:13:39;19.70;99.90
52321;DHT22;38261;54.090;13.382;2022-08-01T05:15:02;19.60;99.90
52321;DHT22;38261;54.090;13.382;2022-08-01T05:16:25;19.60;99.90
52321;DHT22;38261;54.090;13.382;2022-08-01T05:17:48;19.60;99.90
52321;DHT22;38261;54.090;13.382;2022-08-01T05:19:11;19.50;99.90
52321;DHT22;38261;54.090;13.382;2022-08-01T05:20:33;19.50;99.90
52321;DHT22;38261;54.090;13.382;2022-08-01T05:21:55;19.50;99.90
52321;DHT22;38261;54.090;13.382;2022-08-01T05:23:21;19.60;99.90
52321;DHT22;38261;54.090;13.382;2022-08-01T05:25:04;19.60;99.90
52321;DHT22;38261;54.090;13.382;2022-08-01T05:26:29;19.70;99.90
52321;DHT22;38261;54.090;13.382;2022-08-01T05:27:52;19.70;99.90
52321;DHT22;38261;54.090;13.382;2022-08-01T05:29:15;19.80;99.90
52321;DHT22;38261;54.090;13.382;2022-08-01T05:30:38;19.90;99.90
52321;DHT22;38261;54.090;13.382;2022-08-01T05:32:01;20.00;99.90
52321;DHT22;38261;54.090;13.382;2022-08-01T05:33:23;20.20;99.90
52321;DHT22;38261;54.090;13.382;2022-08-01T05:34:47;20.40;99.90
52321;DHT22;38261;54.090;13.382;2022-08-01T05:36:09;20.50;99.90
52321;DHT22;38261;54.090;13.382;2022-08-01T05:37:31;20.60;99.90
52321;DHT22;38261;54.090;13.382;2022-08-01T05:38:53;20.70;99.90
52321;DHT22;38261;54.090;13.382;2022-08-01T05:40:16;20.70;99.90
52321;DHT22;38261;54.090;13.382;2022-08-01T05:41:38;20.70;99.90
52321;DHT22;38261;54.090;13.382;2022-08-01T05:43:00;20.70;99.90
52321;DHT22;38261;54.090;13.382;2022-08-01T05:44:22;20.70;99.90
52321;DHT22;38261;54.090;13.382;2022-08-01T05:45:45;20.70;99.90
52321;DHT22;38261;54.090;13.382;2022-08-01T05:47:07;20.70;99.90
52321;DHT22;38261;54.090;13.382;2022-08-01T05:48:29;20.60;99.90
52321;DHT22;38261;54.090;13.382;2022-08-01T05:49:52;20.50;99.90
52321;DHT22;38261;54.090;13.382;2022-08-01T05:51:14;20.50;99.90
52321;DHT22;38261;54.090;13.382;2022-08-01T05:52:36;20.50;99.90
52321;DHT22;38261;54.090;13.382;2022-08-01T05:53:58;20.50;99.90
52321;DHT22;38261;54.090;13.382;2022-08-01T05:55:22;20.50;99.90
52321;DHT22;38261;54.090;13.382;2022-08-01T05:56:44;20.50;99.90
52321;DHT22;38261;54.090;13.382;2022-08-01T05:58:06;20.60;99.90
52321;DHT22;38261;54.090;13.382;2022-08-01T05:59:33;20.70;99.90
52321;DHT22;38261;54.090;13.382;2022-08-01T06:00:55;20.70;99.90
52321;DHT22;38261;54.090;13.382;2022-08-01T06:02:17;20.90;99.90
52321;DHT22;38261;54.090;13.382;2022-08-01T06:03:40;21.00;99.90
52321;DHT22;38261;54.090;13.382;2022-08-01T06:05:02;21.10;99.90
52321;DHT22;38261;54.090;13.382;2022-08-01T06:06:24;21.20;99.90
52321;DHT22;38261;54.090;13.382;2022-08-01T06:07:47;21.30;99.90
52321;DHT22;38261;54.090;13.382;2022-08-01T06:09:09;21.40;99.90
52321;DHT22;38261;54.090;13.382;2022-08-01T06:10:31;21.60;99.90
52321;DHT22;38261;54.090;13.382;2022-08-01T06:11:53;21.80;99.90
52321;DHT22;38261;54.090;13.382;2022-08-01T06:13:15;21.90;99.90
52321;DHT22;38261;54.090;13.382;2022-08-01T06:14:38;21.90;99.90
52321;DHT22;38261;54.090;13.382;2022-08-01T06:16:00;22.00;99.90
52321;DHT22;38261;54.090;13.382;2022-08-01T06:17:22;22.20;99.90
52321;DHT22;38261;54.090;13.382;2022-08-01T06:18:44;22.30;99.90
52321;DHT22;38261;54.090;13.382;2022-08-01T06:20:07;22.40;99.90
52321;DHT22;38261;54.090;13.382;2022-08-01T06:21:30;22.50;99.90
52321;DHT22;38261;54.090;13.382;2022-08-01T06:22:52;22.50;99.90
52321;DHT22;38261;54.090;13.382;2022-08-01T06:24:15;22.60;99.90
52321;DHT22;38261;54.090;13.382;2022-08-01T06:25:37;22.60;99.90
52321;DHT22;38261;54.090;13.382;2022-08-01T06:26:59;22.60;99.90
52321;DHT22;38261;54.090;13.382;2022-08-01T06:28:22;22.60;99.90
52321;DHT22;38261;54.090;13.382;2022-08-01T06:29:44;22.70;99.90
52321;DHT22;38261;54.090;13.382;2022-08-01T06:31:15;22.70;99.90
52321;DHT22;38261;54.090;13.382;2022-08-01T06:32:37;22.80;99.90
52321;DHT22;38261;54.090;13.382;2022-08-01T06:33:59;22.80;99.90
52321;DHT22;38261;54.090;13.382;2022-08-01T06:35:21;22.80;99.90
52321;DHT22;38261;54.090;13.382;2022-08-01T06:36:43;22.80;99.90
52321;DHT22;38261;54.090;13.382;2022-08-01T06:38:06;22.90;99.90
52321;DHT22;38261;54.090;13.382;2022-08-01T06:39:28;22.90;99.90
52321;DHT22;38261;54.090;13.382;2022-08-01T06:40:50;22.90;99.90
52321;DHT22;38261;54.090;13.382;2022-08-01T06:42:12;23.00;99.90
52321;DHT22;38261;54.090;13.382;2022-08-01T06:43:36;23.10;99.90
52321;DHT22;38261;54.090;13.382;2022-08-01T06:44:58;23.20;99.90
52321;DHT22;38261;54.090;13.382;2022-08-01T06:46:20;23.30;99.90
52321;DHT22;38261;54.090;13.382;2022-08-01T06:47:43;23.40;99.90
52321;DHT22;38261;54.090;13.382;2022-08-01T06:49:11;23.60;99.90
52321;DHT22;38261;54.090;13.382;2022-08-01T06:50:33;23.60;99.90
52321;DHT22;38261;54.090;13.382;2022-08-01T06:51:57;23.70;99.90
52321;DHT22;38261;54.090;13.382;2022-08-01T06:53:19;23.80;99.90
52321;DHT22;38261;54.090;13.382;2022-08-01T06:54:41;23.80;99.90
52321;DHT22;38261;54.090;13.382;2022-08-01T06:56:04;23.80;99.90
52321;DHT22;38261;54.090;13.382;2022-08-01T06:57:27;23.70;99.90
52321;DHT22;38261;54.090;13.382;2022-08-01T06:58:52;23.50;99.90
52321;DHT22;38261;54.090;13.382;2022-08-01T07:00:15;23.40;99.90
52321;DHT22;38261;54.090;13.382;2022-08-01T07:01:40;23.30;99.90
52321;DHT22;38261;54.090;13.382;2022-08-01T07:03:02;23.20;99.90
52321;DHT22;38261;54.090;13.382;2022-08-01T07:04:25;23.20;99.90
52321;DHT22;38261;54.090;13.382;2022-08-01T07:05:47;23.40;99.90
52321;DHT22;38261;54.090;13.382;2022-08-01T07:07:09;23.50;99.90
52321;DHT22;38261;54.090;13.382;2022-08-01T07:08:31;23.70;99.90
52321;DHT22;38261;54.090;13.382;2022-08-01T07:09:53;23.80;99.90
52321;DHT22;38261;54.090;13.382;2022-08-01T07:11:15;24.00;99.90
52321;DHT22;38261;54.090;13.382;2022-08-01T07:12:38;24.10;99.90
52321;DHT22;38261;54.090;13.382;2022-08-01T07:14:01;24.20;99.90
52321;DHT22;38261;54.090;13.382;2022-08-01T07:15:23;24.10;99.90
52321;DHT22;38261;54.090;13.382;2022-08-01T07:16:48;23.90;99.90
52321;DHT22;38261;54.090;13.382;2022-08-01T07:18:10;24.00;99.90
52321;DHT22;38261;54.090;13.382;2022-08-01T07:19:32;24.00;99.90
52321;DHT22;38261;54.090;13.382;2022-08-01T07:20:59;24.20;99.90
52321;DHT22;38261;54.090;13.382;2022-08-01T07:22:25;24.40;99.90
52321;DHT22;38261;54.090;13.382;2022-08-01T07:23:48;24.50;99.90
52321;DHT22;38261;54.090;13.382;2022-08-01T07:25:10;24.70;99.90
52321;DHT22;38261;54.090;13.382;2022-08-01T07:26:32;24.90;99.90
52321;DHT22;38261;54.090;13.382;2022-08-01T07:27:54;25.10;99.90
52321;DHT22;38261;54.090;13.382;2022-08-01T07:29:17;25.20;99.90
52321;DHT22;38261;54.090;13.382;2022-08-01T07:30:39;25.30;99.90
52321;DHT22;38261;54.090;13.382;2022-08-01T07:32:04;25.50;99.90
52321;DHT22;38261;54.090;13.382;2022-08-01T07:33:27;25.40;99.90
52321;DHT22;38261;54.090;13.382;2022-08-01T07:35:09;25.50;99.90
52321;DHT22;38261;54.090;13.382;2022-08-01T07:36:33;25.80;99.90
52321;DHT22;38261;54.090;13.382;2022-08-01T07:37:56;25.90;99.40
52321;DHT22;38261;54.090;13.382;2022-08-01T07:39:19;26.00;99.00
52321;DHT22;38261;54.090;13.382;2022-08-01T07:40:44;26.10;98.80
52321;DHT22;38261;54.090;13.382;2022-08-01T07:42:06;26.20;98.70
52321;DHT22;38261;54.090;13.382;2022-08-01T07:43:29;26.30;98.20
52321;DHT22;38261;54.090;13.382;2022-08-01T07:44:51;26.50;98.00
52321;DHT22;38261;54.090;13.382;2022-08-01T07:46:14;26.70;98.00
52321;DHT22;38261;54.090;13.382;2022-08-01T07:47:36;27.00;97.50
52321;DHT22;38261;54.090;13.382;2022-08-01T07:48:58;27.10;96.80
52321;DHT22;38261;54.090;13.382;2022-08-01T07:50:20;27.10;96.50
52321;DHT22;38261;54.090;13.382;2022-08-01T07:51:43;27.10;96.60
52321;DHT22;38261;54.090;13.382;2022-08-01T07:53:25;27.10;96.60
52321;DHT22;38261;54.090;13.382;2022-08-01T07:54:47;27.10;96.30
52321;DHT22;38261;54.090;13.382;2022-08-01T07:56:13;27.10;96.20
52321;DHT22;38261;54.090;13.382;2022-08-01T07:57:35;26.90;95.70
52321;DHT22;38261;54.090;13.382;2022-08-01T07:58:58;26.60;96.30
52321;DHT22;38261;54.090;13.382;2022-08-01T08:00:20;26.40;96.70
52321;DHT22;38261;54.090;13.382;2022-08-01T08:01:42;26.20;96.90
52321;DHT22;38261;54.090;13.382;2022-08-01T08:03:09;26.10;97.10
52321;DHT22;38261;54.090;13.382;2022-08-01T08:04:31;26.10;96.90
52321;DHT22;38261;54.090;13.382;2022-08-01T08:05:53;26.20;97.00
52321;DHT22;38261;54.090;13.382;2022-08-01T08:07:21;26.20;96.90
52321;DHT22;38261;54.090;13.382;2022-08-01T08:08:43;26.20;96.90
52321;DHT22;38261;54.090;13.382;2022-08-01T08:10:05;26.30;97.10
52321;DHT22;38261;54.090;13.382;2022-08-01T08:11:28;26.30;97.20
52321;DHT22;38261;54.090;13.382;2022-08-01T08:12:50;26.40;97.20
52321;DHT22;38261;54.090;13.382;2022-08-01T08:14:13;26.50;97.00
52321;DHT22;38261;54.090;13.382;2022-08-01T08:15:35;26.60;97.10
52321;DHT22;38261;54.090;13.382;2022-08-01T08:16:57;26.70;96.80
52321;DHT22;38261;54.090;13.382;2022-08-01T08:18:20;26.80;96.80
52321;DHT22;38261;54.090;13.382;2022-08-01T08:19:42;26.90;96.70
52321;DHT22;38261;54.090;13.382;2022-08-01T08:21:04;27.10;96.40
52321;DHT22;38261;54.090;13.382;2022-08-01T08:22:28;27.10;96.00
52321;DHT22;38261;54.090;13.382;2022-08-01T08:23:52;27.10;96.20
52321;DHT22;38261;54.090;13.382;2022-08-01T08:25:33;27.10;96.20
52321;DHT22;38261;54.090;13.382;2022-08-01T08:26:59;27.10;96.00
52321;DHT22;38261;54.090;13.382;2022-08-01T08:28:22;27.20;95.20
52321;DHT22;38261;54.090;13.382;2022-08-01T08:29:49;27.20;95.10
52321;DHT22;38261;54.090;13.382;2022-08-01T08:31:11;27.40;95.20
52321;DHT22;38261;54.090;13.382;2022-08-01T08:32:53;27.50;95.20
52321;DHT22;38261;54.090;13.382;2022-08-01T08:34:16;27.70;95.10
52321;DHT22;38261;54.090;13.382;2022-08-01T08:35:41;27.70;94.80
52321;DHT22;38261;54.090;13.382;2022-08-01T08:37:15;27.80;94.80
52321;DHT22;38261;54.090;13.382;2022-08-01T08:38:37;27.80;94.70
52321;DHT22;38261;54.090;13.382;2022-08-01T08:40:01;27.60;94.50
52321;DHT22;38261;54.090;13.382;2022-08-01T08:41:23;27.30;94.80
52321;DHT22;38261;54.090;13.382;2022-08-01T08:42:46;27.10;95.20
52321;DHT22;38261;54.090;13.382;2022-08-01T08:44:09;26.90;95.60
52321;DHT22;38261;54.090;13.382;2022-08-01T08:45:32;26.60;95.90
52321;DHT22;38261;54.090;13.382;2022-08-01T08:47:15;26.20;96.50
52321;DHT22;38261;54.090;13.382;2022-08-01T08:48:41;25.70;97.40
52321;DHT22;38261;54.090;13.382;2022-08-01T08:50:04;25.40;98.10
52321;DHT22;38261;54.090;13.382;2022-08-01T08:51:28;25.10;98.40
52321;DHT22;38261;54.090;13.382;2022-08-01T08:52:53;24.80;98.80
52321;DHT22;38261;54.090;13.382;2022-08-01T08:54:18;24.60;98.60